Time;durP1;ratioP1;P1;durP2;ratioP2;P2;SDS_P1;SDS_P2;PMS_P1;PMS_P2;Temp;Humidity;BMP_temperature;BMP_pressure;BME280_temperature;BME280_humidity;BME280_pressure;Samples;Min_cycle;Max_cycle;Signal;HPM_P1;HPM_P2
2023/05/05 00:02:06;;;;;;;8.30;5.70;;;11.10;91.10;;;;;;4984180;28;20211;-94
2023/05/05 00:04:33;;;;;;;10.50;6.18;;;11.00;91.40;;;;;;4976878;28;20212;-93
2023/05/05 00:07:01;;;;;;;10.52;6.30;;;11.00;91.70;;;;;;4981023;28;20201;-94
2023/05/05 00:09:28;;;;;;;9.82;6.07;;;10.90;92.40;;;;;;4967593;28;20678;-94
2023/05/05 00:11:55;;;;;;;9.80;6.90;;;10.80;92.90;;;;;;4982460;28;20239;-94
2023/05/05 00:14:22;;;;;;;9.25;6.18;;;10.90;92.90;;;;;;4968502;28;20248;-92
2023/05/05 00:16:49;;;;;;;7.53;5.72;;;10.80;92.70;;;;;;4995502;28;20207;-93
2023/05/05 00:19:15;;;;;;;7.47;6.00;;;10.70;92.60;;;;;;4989428;28;20227;-93
2023/05/05 00:21:42;;;;;;;8.00;5.63;;;10.70;93.00;;;;;;4985955;28;20209;-94
2023/05/05 00:24:11;;;;;;;9.93;6.22;;;10.50;92.90;;;;;;4962299;28;20209;-93
2023/05/05 00:26:38;;;;;;;9.43;5.80;;;10.50;93.10;;;;;;4991045;28;20216;-94
2023/05/05 00:29:04;;;;;;;7.65;6.07;;;10.40;93.10;;;;;;4948773;28;20216;-93
2023/05/05 00:31:31;;;;;;;6.95;6.22;;;10.40;93.60;;;;;;4954555;28;20209;-92
2023/05/05 00:33:58;;;;;;;10.90;5.95;;;10.30;93.60;;;;;;4990386;28;20204;-93
2023/05/05 00:36:25;;;;;;;9.75;6.38;;;10.20;93.80;;;;;;4987558;28;20212;-93
2023/05/05 00:38:52;;;;;;;7.82;5.95;;;10.10;94.10;;;;;;4971267;28;20208;-92
2023/05/05 00:41:20;;;;;;;8.50;5.80;;;10.10;94.30;;;;;;4982793;28;20208;-92
2023/05/05 00:43:47;;;;;;;7.22;6.03;;;10.10;94.30;;;;;;4980859;28;20215;-93
2023/05/05 00:46:23;;;;;;;9.32;7.00;;;10.10;94.30;;;;;;4987449;28;20192;-94
2023/05/05 00:48:50;;;;;;;8.50;6.10;;;10.10;94.20;;;;;;4984177;28;20280;-93
2023/05/05 00:51:18;;;;;;;7.72;6.20;;;10.10;94.30;;;;;;4980294;28;20201;-93
2023/05/05 00:53:46;;;;;;;14.45;6.82;;;10.10;94.50;;;;;;4996080;28;20181;-92
2023/05/05 00:56:14;;;;;;;9.25;6.70;;;10.00;94.80;;;;;;4976203;28;20192;-93
2023/05/05 00:58:43;;;;;;;8.73;6.20;;;10.00;95.00;;;;;;4958119;28;20205;-93
2023/05/05 01:01:12;;;;;;;8.45;6.55;;;9.90;96.10;;;;;;4986893;28;20198;-91
2023/05/05 01:03:40;;;;;;;7.72;6.47;;;9.90;96.10;;;;;;4989436;28;20208;-92
2023/05/05 01:06:15;;;;;;;8.73;6.30;;;9.90;96.10;;;;;;4989318;28;20209;-93
2023/05/05 01:08:52;;;;;;;7.47;6.38;;;9.90;96.10;;;;;;4990275;28;20211;-93
2023/05/05 01:11:26;;;;;;;8.18;6.10;;;9.90;96.10;;;;;;4974537;28;20210;-92
2023/05/05 01:14:03;;;;;;;6.82;6.07;;;9.90;96.10;;;;;;4969394;28;20235;-93
2023/05/05 01:16:33;;;;;;;7.88;6.32;;;9.90;96.20;;;;;;4973070;28;20200;-92
2023/05/05 01:19:09;;;;;;;10.43;6.28;;;10.00;96.10;;;;;;4970186;28;20317;-93
2023/05/05 01:21:40;;;;;;;7.90;6.32;;;10.00;96.10;;;;;;4982859;28;20196;-93
2023/05/05 01:24:27;;;;;;;9.23;6.40;;;10.10;95.80;;;;;;4992426;28;20200;-93
2023/05/05 01:27:08;;;;;;;7.70;5.75;;;10.10;95.90;;;;;;4985755;28;20224;-93
2023/05/05 01:29:48;;;;;;;8.80;5.38;;;10.10;95.80;;;;;;4951326;28;20217;-93
2023/05/05 01:32:21;;;;;;;7.15;6.25;;;10.10;95.80;;;;;;4989757;28;20204;-92
2023/05/05 01:34:56;;;;;;;9.82;6.13;;;10.00;96.00;;;;;;4989707;28;20215;-93
2023/05/05 01:37:27;;;;;;;7.18;6.32;;;9.90;96.80;;;;;;4988953;28;20210;-93
2023/05/05 01:39:58;;;;;;;9.68;6.60;;;9.80;97.10;;;;;;4984363;28;20209;-93
2023/05/05 01:42:26;;;;;;;7.47;5.80;;;9.80;97.30;;;;;;4969846;28;20200;-93
2023/05/05 01:44:56;;;;;;;6.55;5.90;;;9.80;97.30;;;;;;4991466;28;20204;-93
2023/05/05 01:47:25;;;;;;;7.80;5.68;;;9.90;97.20;;;;;;4987868;28;20215;-93
2023/05/05 01:49:53;;;;;;;8.75;5.82;;;9.80;97.20;;;;;;4961683;28;20225;-93
2023/05/05 01:52:22;;;;;;;8.55;6.50;;;9.80;97.50;;;;;;4988830;28;20439;-93
2023/05/05 01:54:50;;;;;;;8.32;6.10;;;9.70;97.80;;;;;;4969719;28;20220;-93
2023/05/05 01:57:19;;;;;;;8.60;5.97;;;9.80;97.80;;;;;;4953247;28;20196;-94
2023/05/05 01:59:49;;;;;;;12.18;6.32;;;9.80;97.70;;;;;;4973452;28;20712;-92
2023/05/05 02:02:17;;;;;;;8.48;5.95;;;9.80;97.90;;;;;;4949248;28;20207;-93
2023/05/05 02:04:46;;;;;;;14.68;6.38;;;9.70;98.20;;;;;;4950542;28;20236;-93
2023/05/05 02:07:14;;;;;;;6.60;5.90;;;9.70;97.90;;;;;;4964889;28;20236;-93
2023/05/05 02:09:42;;;;;;;8.18;6.07;;;9.70;98.00;;;;;;4967600;28;20216;-92
2023/05/05 02:12:10;;;;;;;10.02;5.80;;;9.70;98.00;;;;;;4984341;28;20211;-93
2023/05/05 02:14:40;;;;;;;8.63;6.28;;;9.70;98.10;;;;;;4968874;28;20200;-93
2023/05/05 02:17:08;;;;;;;7.30;6.40;;;9.60;98.30;;;;;;4969281;28;20217;-93
2023/05/05 02:19:39;;;;;;;7.97;6.28;;;9.60;98.40;;;;;;4970527;28;20223;-93
2023/05/05 02:22:08;;;;;;;6.88;5.95;;;9.60;98.40;;;;;;4991108;28;20219;-93
2023/05/05 02:24:35;;;;;;;6.70;5.93;;;9.60;98.30;;;;;;4988985;28;20201;-93
2023/05/05 02:27:06;;;;;;;7.60;6.18;;;9.60;98.30;;;;;;4975059;28;20228;-91
2023/05/05 02:29:35;;;;;;;8.38;6.32;;;9.70;98.20;;;;;;4974657;28;20209;-93
2023/05/05 02:32:05;;;;;;;6.85;5.95;;;9.70;98.20;;;;;;4974415;28;20212;-93
2023/05/05 02:34:38;;;;;;;8.90;5.75;;;9.60;98.20;;;;;;4989758;28;20228;-93
2023/05/05 02:37:09;;;;;;;8.30;6.13;;;9.70;98.20;;;;;;4977876;28;20601;-93
2023/05/05 02:39:45;;;;;;;7.55;6.28;;;9.60;98.20;;;;;;4956370;28;20205;-93
2023/05/05 02:42:16;;;;;;;8.70;6.47;;;9.50;98.60;;;;;;4980270;28;20212;-92
2023/05/05 02:44:45;;;;;;;6.43;5.72;;;9.50;98.60;;;;;;4961766;28;20224;-92
2023/05/05 02:47:12;;;;;;;6.95;5.93;;;9.50;98.90;;;;;;4988723;28;20247;-93
2023/05/05 02:49:39;;;;;;;10.25;8.60;;;9.40;98.80;;;;;;4996030;28;20283;-92
2023/05/05 02:52:06;;;;;;;8.95;6.25;;;9.40;98.80;;;;;;5000010;28;20204;-93
2023/05/05 02:57:19;;;;;;;12.18;6.57;;;9.40;98.70;;;;;;4988238;28;20263;-93
2023/05/05 02:59:53;;;;;;;6.72;6.03;;;9.40;99.20;;;;;;4978693;28;20226;-93
2023/05/05 03:02:27;;;;;;;6.95;6.25;;;9.40;99.00;;;;;;4997471;28;20211;-93
2023/05/05 03:05:00;;;;;;;8.77;5.95;;;9.40;99.10;;;;;;4998554;28;20196;-93
2023/05/05 03:07:34;;;;;;;8.23;5.82;;;9.30;99.30;;;;;;4977264;28;20227;-91
2023/05/05 03:10:08;;;;;;;7.30;6.40;;;9.20;99.60;;;;;;5004267;28;20251;-93
2023/05/05 03:12:39;;;;;;;7.30;6.50;;;9.20;99.80;;;;;;4976529;28;20212;-93
2023/05/05 03:15:09;;;;;;;7.10;6.40;;;9.10;99.90;;;;;;4975091;28;20201;-93
2023/05/05 03:17:37;;;;;;;11.73;6.18;;;9.10;99.90;;;;;;4997085;28;20220;-93
2023/05/05 03:20:05;;;;;;;7.65;6.50;;;9.10;99.90;;;;;;4992222;28;20192;-93
2023/05/05 03:22:36;;;;;;;9.35;6.40;;;9.10;99.90;;;;;;4993817;28;20224;-93
2023/05/05 03:25:12;;;;;;;9.32;6.15;;;9.10;99.90;;;;;;4995788;28;20272;-93
2023/05/05 03:27:39;;;;;;;7.70;5.88;;;9.20;99.90;;;;;;4995859;28;20255;-93
2023/05/05 03:30:07;;;;;;;6.40;5.80;;;9.20;99.90;;;;;;4999824;28;20247;-93
2023/05/05 03:32:34;;;;;;;6.30;5.57;;;9.20;99.90;;;;;;4976162;28;20197;-93
2023/05/05 03:35:01;;;;;;;7.43;6.28;;;9.30;99.90;;;;;;4982830;28;20820;-93
2023/05/05 03:37:28;;;;;;;7.38;6.60;;;9.30;99.90;;;;;;4979954;28;20268;-93
2023/05/05 03:39:55;;;;;;;8.07;5.97;;;9.40;99.90;;;;;;4987194;28;20216;-91
2023/05/05 03:42:23;;;;;;;7.90;5.97;;;9.40;99.80;;;;;;4994059;28;20260;-93
2023/05/05 03:44:52;;;;;;;7.60;6.32;;;9.40;99.90;;;;;;5001686;28;20342;-94
2023/05/05 03:47:19;;;;;;;7.97;5.97;;;9.40;99.90;;;;;;4962672;28;20193;-92
2023/05/05 03:49:46;;;;;;;7.18;6.10;;;9.40;99.90;;;;;;4986203;28;20294;-92
2023/05/05 03:52:12;;;;;;;6.55;5.38;;;9.40;99.90;;;;;;4992894;28;20231;-93
2023/05/05 03:54:41;;;;;;;7.03;5.82;;;9.30;99.90;;;;;;4976663;28;20232;-92
2023/05/05 03:57:08;;;;;;;7.22;6.20;;;9.30;99.90;;;;;;4969870;28;20205;-93
2023/05/05 03:59:36;;;;;;;6.40;5.80;;;9.30;99.90;;;;;;4993639;28;20232;-93
2023/05/05 04:02:03;;;;;;;7.50;6.22;;;9.40;99.90;;;;;;4989347;28;20210;-92
2023/05/05 04:04:30;;;;;;;7.90;5.85;;;9.40;99.90;;;;;;4980685;28;20196;-91
2023/05/05 04:06:56;;;;;;;9.55;5.60;;;9.50;99.90;;;;;;4970239;28;20180;-93
2023/05/05 04:09:23;;;;;;;8.05;6.22;;;9.50;99.90;;;;;;4992614;28;20248;-92
2023/05/05 04:11:50;;;;;;;9.25;5.57;;;9.50;99.90;;;;;;4970918;28;20284;-94
2023/05/05 04:14:17;;;;;;;7.45;5.65;;;9.50;99.90;;;;;;4984216;28;20277;-93
2023/05/05 04:16:45;;;;;;;6.43;5.55;;;9.60;99.90;;;;;;4989912;28;20300;-93
2023/05/05 04:19:13;;;;;;;6.13;5.32;;;9.80;99.90;;;;;;4972382;28;20216;-94
2023/05/05 04:21:39;;;;;;;7.53;5.50;;;9.80;99.90;;;;;;4959805;28;20209;-94
2023/05/05 04:24:06;;;;;;;6.45;4.80;;;9.90;99.90;;;;;;4985855;28;20189;-93
2023/05/05 04:26:33;;;;;;;7.32;5.88;;;10.00;99.50;;;;;;4990803;28;20212;-92
2023/05/05 04:29:00;;;;;;;6.35;5.22;;;10.00;99.50;;;;;;4972039;28;20209;-92
2023/05/05 04:31:27;;;;;;;6.63;5.50;;;10.00;99.90;;;;;;4991662;28;20216;-91
2023/05/05 04:33:55;;;;;;;7.07;5.32;;;10.10;99.20;;;;;;4979186;28;21285;-91
2023/05/05 04:36:22;;;;;;;5.60;5.00;;;10.20;99.10;;;;;;4998918;28;20276;-93
2023/05/05 04:38:49;;;;;;;5.43;4.90;;;10.10;99.00;;;;;;4997687;28;20201;-93
2023/05/05 04:41:16;;;;;;;5.68;5.18;;;10.10;99.10;;;;;;4987071;28;20200;-93
2023/05/05 04:43:43;;;;;;;6.05;5.38;;;10.00;99.40;;;;;;4993177;28;20279;-93
2023/05/05 04:46:10;;;;;;;5.78;5.18;;;10.00;99.70;;;;;;4987134;28;20200;-94
2023/05/05 04:48:37;;;;;;;5.22;4.72;;;10.00;99.80;;;;;;4988745;28;20218;-92
2023/05/05 04:53:41;;;;;;;6.82;5.07;;;10.20;99.90;;;;;;5913152;23;20231;-92
2023/05/05 05:01:46;;;;;;;8.68;5.53;;;10.60;99.00;;;;;;5995583;23;20275;-93
2023/05/05 05:09:25;;;;;;;14.27;5.93;;;11.00;98.60;;;;;;5943564;23;20223;-89
2023/05/05 05:11:52;;;;;;;10.00;5.38;;;11.20;98.20;;;;;;4983962;28;20228;-93
2023/05/05 05:14:19;;;;;;;15.32;5.55;;;11.50;98.20;;;;;;4983556;28;20201;-94
2023/05/05 05:16:49;;;;;;;9.77;5.13;;;11.70;97.80;;;;;;4963621;28;20209;-92
2023/05/05 05:19:17;;;;;;;10.95;4.90;;;11.80;97.30;;;;;;4940165;29;20690;-93
2023/05/05 05:21:44;;;;;;;14.27;4.85;;;12.00;97.20;;;;;;4954150;29;20213;-93
2023/05/05 05:24:11;;;;;;;8.63;4.50;;;12.10;97.00;;;;;;4956672;29;20207;-95
2023/05/05 05:26:39;;;;;;;6.68;4.93;;;12.20;96.40;;;;;;4974623;28;20197;-94
2023/05/05 05:29:06;;;;;;;7.25;4.38;;;12.20;96.50;;;;;;4958633;28;20216;-90
2023/05/05 05:31:33;;;;;;;8.35;4.45;;;12.20;96.20;;;;;;4952696;28;20224;-91
2023/05/05 05:36:35;;;;;;;10.52;5.10;;;12.40;96.30;;;;;;4983061;28;20208;-93
2023/05/05 05:49:28;;;;;;;6.45;4.32;;;13.20;95.10;;;;;;5542915;22;20701;-93
2023/05/05 05:55:17;;;;;;;7.75;4.55;;;13.40;95.10;;;;;;5012896;28;20194;-94
2023/05/05 05:57:44;;;;;;;8.15;4.10;;;13.60;95.10;;;;;;5011401;28;20270;-94
2023/05/05 06:00:12;;;;;;;9.80;4.43;;;13.80;92.50;;;;;;5330989;23;20254;-91
2023/05/05 06:12:58;;;;;;;6.78;4.10;;;15.30;84.80;;;;;;4999460;28;20199;-89
2023/05/05 06:15:26;;;;;;;6.15;3.97;;;15.50;81.20;;;;;;5027905;28;20217;-90
2023/05/05 06:20:28;;;;;;;6.80;4.40;;;15.60;81.70;;;;;;6117129;23;20173;-93
2023/05/05 06:26:17;;;;;;;6.85;3.80;;;15.70;82.30;;;;;;5021694;28;20190;-94
2023/05/05 06:31:27;;;;;;;9.35;3.50;;;15.90;79.70;;;;;;4989748;28;20227;-93
2023/05/05 07:11:23;;;;;;;4.43;3.30;;;18.40;51.10;;;;;;5902599;23;20259;-94
2023/05/05 07:13:51;;;;;;;4.03;3.25;;;18.40;54.20;;;;;;5004056;28;20224;-92
2023/05/05 07:16:18;;;;;;;7.35;3.00;;;18.40;50.30;;;;;;5010311;28;20210;-94
2023/05/05 07:18:45;;;;;;;4.22;3.13;;;18.40;47.60;;;;;;4991047;28;20231;-95
2023/05/05 07:21:12;;;;;;;3.88;3.40;;;18.50;50.10;;;;;;4985741;28;20209;-95
2023/05/05 07:23:39;;;;;;;4.13;3.22;;;18.50;51.20;;;;;;4986047;28;20217;-94
2023/05/05 07:26:06;;;;;;;6.70;3.63;;;18.60;49.60;;;;;;4985365;28;20215;-95
2023/05/05 07:28:34;;;;;;;6.60;3.55;;;18.70;44.40;;;;;;4988162;28;20224;-93
2023/05/05 07:31:01;;;;;;;4.50;3.03;;;19.00;42.60;;;;;;4974510;28;20303;-95
2023/05/05 07:33:28;;;;;;;6.95;3.45;;;19.10;40.10;;;;;;4991704;28;20202;-92
2023/05/05 07:35:55;;;;;;;4.47;3.50;;;19.10;39.20;;;;;;4961497;28;20205;-93
2023/05/05 07:38:24;;;;;;;5.72;3.40;;;19.10;39.90;;;;;;4979771;28;20199;-94
2023/05/05 07:40:51;;;;;;;5.68;3.30;;;19.00;39.40;;;;;;4983969;28;20194;-94
2023/05/05 07:43:18;;;;;;;7.25;3.25;;;19.00;40.90;;;;;;4957928;28;20241;-94
2023/05/05 07:45:48;;;;;;;4.70;3.38;;;19.10;41.20;;;;;;4987762;28;20679;-93
2023/05/05 07:48:15;;;;;;;3.88;3.40;;;19.20;41.90;;;;;;4981622;28;20201;-95
2023/05/05 07:50:43;;;;;;;7.47;3.45;;;19.10;41.50;;;;;;4989788;28;20247;-93
2023/05/05 07:53:09;;;;;;;4.43;3.50;;;19.20;41.90;;;;;;4996884;28;20260;-94
2023/05/05 07:55:36;;;;;;;3.70;3.10;;;19.20;42.60;;;;;;5052651;22;20295;-93
2023/05/05 07:58:03;;;;;;;5.53;3.40;;;19.30;39.30;;;;;;4987654;28;20192;-94
2023/05/05 08:00:30;;;;;;;5.75;3.55;;;19.40;39.50;;;;;;5007430;28;20211;-94
2023/05/05 08:02:59;;;;;;;6.43;3.17;;;19.50;38.30;;;;;;4974470;28;20204;-94
2023/05/05 08:05:26;;;;;;;3.85;3.25;;;19.60;37.80;;;;;;5001772;28;20192;-94
2023/05/05 08:07:53;;;;;;;5.95;3.47;;;19.70;36.90;;;;;;4998380;28;20192;-94
2023/05/05 08:10:21;;;;;;;3.53;3.17;;;19.70;36.60;;;;;;4978938;28;20226;-94
2023/05/05 08:12:48;;;;;;;5.22;3.20;;;19.70;36.80;;;;;;4985343;28;20220;-94
2023/05/05 08:15:15;;;;;;;4.90;3.20;;;19.80;36.00;;;;;;5000218;28;20210;-94
2023/05/05 08:17:52;;;;;;;6.80;3.25;;;19.90;34.80;;;;;;4994178;28;20220;-94
2023/05/05 08:20:21;;;;;;;5.90;3.95;;;20.00;32.10;;;;;;4981045;28;20556;-94
2023/05/05 08:22:48;;;;;;;7.00;3.80;;;20.20;32.30;;;;;;4965204;28;20609;-93
2023/05/05 08:25:15;;;;;;;6.05;3.88;;;20.30;32.30;;;;;;4966691;28;20200;-94
2023/05/05 08:27:42;;;;;;;5.10;3.10;;;20.40;32.40;;;;;;4964422;28;20204;-94
2023/05/05 08:30:10;;;;;;;11.05;4.57;;;20.50;32.50;;;;;;4981213;28;20201;-94
2023/05/05 08:32:37;;;;;;;5.70;3.58;;;20.70;30.80;;;;;;4975009;28;20293;-93
2023/05/05 08:35:05;;;;;;;5.13;3.63;;;20.80;30.90;;;;;;4951303;28;20231;-94
2023/05/05 08:37:34;;;;;;;8.20;3.90;;;20.70;30.70;;;;;;4977256;28;20212;-94
2023/05/05 08:40:01;;;;;;;5.47;3.45;;;20.70;31.40;;;;;;4953666;28;20208;-94
2023/05/05 08:42:29;;;;;;;4.70;3.63;;;20.90;32.90;;;;;;4983462;28;20211;-95
2023/05/05 08:44:56;;;;;;;4.70;3.30;;;20.90;29.90;;;;;;4980456;28;20289;-93
2023/05/05 08:47:23;;;;;;;3.45;2.90;;;21.10;32.20;;;;;;4936178;29;20205;-93
2023/05/05 08:49:53;;;;;;;6.03;3.50;;;21.20;28.90;;;;;;4948797;28;20209;-93
2023/05/05 08:52:24;;;;;;;4.38;3.55;;;21.40;29.70;;;;;;4959156;28;20212;-93
2023/05/05 08:55:01;;;;;;;7.07;3.33;;;21.90;28.60;;;;;;4979036;28;20209;-93
2023/05/05 08:57:32;;;;;;;7.68;4.10;;;22.50;26.70;;;;;;5253192;23;20186;-88
2023/05/05 09:41:40;;;;;;;19.95;9.57;;;27.80;13.90;;;;;;5764371;23;20226;-90
2023/05/05 09:44:08;;;;;;;6.57;4.13;;;27.70;14.50;;;;;;5010109;28;20199;-91
2023/05/05 09:46:35;;;;;;;7.15;5.03;;;27.70;13.70;;;;;;5177565;23;20269;-91
2023/05/05 09:56:51;;;;;;;6.88;3.60;;;28.00;12.90;;;;;;5639928;22;20230;-94
2023/05/05 10:02:09;;;;;;;3.78;3.40;;;29.00;12.80;;;;;;5174510;23;20227;-94
2023/05/05 10:04:38;;;;;;;6.28;3.78;;;28.70;12.00;;;;;;5001902;28;20219;-93
2023/05/05 10:07:12;;;;;;;4.78;3.60;;;28.40;13.20;;;;;;5009190;28;20553;-94
2023/05/05 10:09:39;;;;;;;4.72;3.90;;;28.30;12.00;;;;;;5006903;28;20210;-90
2023/05/05 10:12:07;;;;;;;5.35;3.60;;;29.30;10.10;;;;;;5070759;23;20357;-93
2023/05/05 10:14:35;;;;;;;10.07;3.88;;;29.40;10.10;;;;;;4991439;28;20202;-92
2023/05/05 10:22:13;;;;;;;4.05;3.55;;;29.00;12.20;;;;;;5456796;22;20226;-89
2023/05/05 10:24:45;;;;;;;4.43;3.78;;;28.10;11.00;;;;;;5485332;23;20213;-91
2023/05/05 10:27:19;;;;;;;3.50;3.20;;;27.20;15.20;;;;;;5354284;23;20238;-93
2023/05/05 10:37:32;;;;;;;3.22;3.03;;;28.20;13.90;;;;;;5803428;23;20226;-90
2023/05/05 10:40:37;;;;;;;3.65;3.35;;;28.20;12.10;;;;;;5030842;23;20221;-88
2023/05/05 10:50:53;;;;;;;5.20;3.50;;;27.90;12.90;;;;;;5030109;28;20213;-92
2023/05/05 10:53:24;;;;;;;7.40;3.72;;;28.10;14.80;;;;;;5032823;28;20218;-94
2023/05/05 10:56:02;;;;;;;5.20;3.65;;;28.20;14.00;;;;;;5033647;28;20594;-88
2023/05/05 10:58:34;;;;;;;5.93;3.53;;;28.10;12.60;;;;;;5031536;28;20194;-87
2023/05/05 11:01:01;;;;;;;6.93;3.55;;;27.80;13.50;;;;;;5223181;23;20328;-91
2023/05/05 11:08:52;;;;;;;3.50;2.97;;;26.10;16.00;;;;;;5630317;23;20231;-90
2023/05/05 11:11:56;;;;;;;3.42;3.10;;;25.90;14.60;;;;;;4994143;28;20263;-88
2023/05/05 11:14:25;;;;;;;3.30;3.00;;;25.70;15.80;;;;;;4985888;28;20192;-91
2023/05/05 11:19:46;;;;;;;4.15;3.13;;;26.10;14.70;;;;;;5244405;22;20210;-88
2023/05/05 11:22:15;;;;;;;5.40;2.92;;;26.40;14.80;;;;;;5005163;28;20259;-90
2023/05/05 11:24:42;;;;;;;4.65;3.20;;;26.40;14.80;;;;;;5181847;23;20239;-91
2023/05/05 11:30:07;;;;;;;3.22;2.75;;;25.70;14.50;;;;;;5240968;22;20239;-89
2023/05/05 11:32:34;;;;;;;6.57;3.03;;;25.40;15.70;;;;;;4980740;28;20227;-91
2023/05/05 11:35:02;;;;;;;3.28;2.97;;;24.90;16.50;;;;;;4941225;29;20657;-90
2023/05/05 11:37:29;;;;;;;3.88;2.97;;;24.80;18.10;;;;;;4970058;28;20202;-93
2023/05/05 11:40:16;;;;;;;4.38;3.40;;;24.60;17.30;;;;;;4970528;28;20287;-88
2023/05/05 11:42:43;;;;;;;4.68;3.10;;;24.40;17.70;;;;;;4974271;28;20645;-92
2023/05/05 11:45:50;;;;;;;5.65;3.55;;;24.50;19.50;;;;;;4980617;28;20195;-86
2023/05/05 11:48:27;;;;;;;4.45;3.10;;;24.80;19.50;;;;;;4985058;28;20200;-92
2023/05/05 11:50:54;;;;;;;5.47;3.28;;;25.20;17.80;;;;;;4983202;28;20219;-91
2023/05/05 11:53:21;;;;;;;7.93;3.58;;;25.60;16.60;;;;;;4982110;28;20222;-91
2023/05/05 11:55:48;;;;;;;3.95;3.42;;;25.80;16.50;;;;;;4986919;28;20205;-91
2023/05/05 12:19:05;;;;;;;5.82;3.92;;;25.10;19.00;;;;;;5435632;23;20960;-90
2023/05/05 12:31:49;;;;;;;4.78;4.15;;;25.50;17.40;;;;;;5514476;22;20217;-89
2023/05/05 12:34:18;;;;;;;6.28;4.03;;;25.00;18.50;;;;;;5629835;23;20271;-90
2023/05/05 12:36:46;;;;;;;4.38;3.88;;;24.60;19.50;;;;;;4999144;28;20223;-91
2023/05/05 12:39:12;;;;;;;4.75;4.00;;;24.50;19.40;;;;;;5010608;28;20200;-90
2023/05/05 12:41:40;;;;;;;4.75;4.10;;;24.40;19.80;;;;;;5008853;28;20196;-92
2023/05/05 12:44:07;;;;;;;6.20;4.35;;;24.40;20.00;;;;;;5141128;23;20517;-92
2023/05/05 13:02:12;;;;;;;6.10;4.85;;;23.90;21.40;;;;;;5104652;23;20239;-90
2023/05/05 13:12:22;;;;;;;6.25;4.00;;;24.10;20.70;;;;;;5082632;23;20247;-90
2023/05/05 13:14:49;;;;;;;6.28;4.50;;;24.40;20.00;;;;;;4995403;28;20186;-89
2023/05/05 13:19:52;;;;;;;5.80;4.25;;;24.60;20.50;;;;;;5712343;22;20239;-91
2023/05/05 13:45:37;;;;;;;9.05;5.28;;;25.10;18.50;;;;;;5321664;23;21311;-92
2023/05/05 14:51:43;;;;;;;6.22;4.60;;;23.90;20.20;;;;;;5673804;23;20198;-90
2023/05/05 15:17:31;;;;;;;5.35;4.22;;;23.70;20.90;;;;;;5252675;22;20251;-92
2023/05/05 15:19:58;;;;;;;5.30;4.80;;;23.70;21.40;;;;;;5139300;23;20222;-92
2023/05/05 15:22:25;;;;;;;5.88;4.40;;;23.80;21.30;;;;;;5103975;23;20242;-93
2023/05/05 15:24:52;;;;;;;7.88;4.47;;;23.70;21.20;;;;;;5009699;28;20309;-92
2023/05/05 15:27:19;;;;;;;6.05;4.60;;;23.50;22.90;;;;;;5000296;28;20204;-93
2023/05/05 15:29:47;;;;;;;6.32;4.80;;;23.40;21.60;;;;;;5006674;28;20295;-93
2023/05/05 15:32:14;;;;;;;6.32;4.32;;;23.30;22.00;;;;;;5000211;28;20287;-93
2023/05/05 15:34:43;;;;;;;9.48;4.65;;;23.30;21.70;;;;;;5010647;28;20986;-91
2023/05/05 15:37:10;;;;;;;6.78;4.45;;;23.20;22.90;;;;;;4992775;28;20200;-93
2023/05/05 15:39:37;;;;;;;5.90;5.13;;;23.10;22.70;;;;;;5009925;28;20219;-93
2023/05/05 15:42:04;;;;;;;8.13;5.05;;;23.20;21.40;;;;;;4994981;28;20545;-93
2023/05/05 15:44:31;;;;;;;5.90;4.95;;;23.20;22.30;;;;;;5006339;28;20185;-94
2023/05/05 15:47:00;;;;;;;7.22;5.28;;;23.20;22.40;;;;;;4987799;28;20232;-92
2023/05/05 15:51:56;;;;;;;7.30;5.90;;;23.40;22.00;;;;;;5294569;23;20206;-92
2023/05/05 16:12:27;;;;;;;8.43;5.55;;;23.00;22.10;;;;;;5223362;22;20222;-93
2023/05/05 16:14:54;;;;;;;6.93;4.88;;;22.80;22.40;;;;;;5211227;23;20722;-94
2023/05/05 16:17:21;;;;;;;5.90;4.60;;;22.60;22.60;;;;;;4958111;28;20224;-90
2023/05/05 16:19:48;;;;;;;5.25;4.75;;;22.50;22.90;;;;;;4978474;28;20196;-92
2023/05/05 16:22:16;;;;;;;7.95;5.47;;;22.50;23.00;;;;;;4986068;28;20201;-92
2023/05/05 16:24:43;;;;;;;8.15;5.97;;;22.50;23.50;;;;;;4987260;28;20196;-92
2023/05/05 16:32:23;;;;;;;6.43;5.38;;;22.40;23.60;;;;;;5133475;22;20214;-93
2023/05/05 16:37:25;;;;;;;7.45;5.68;;;22.50;23.90;;;;;;5084043;23;20255;-93
2023/05/05 16:39:52;;;;;;;8.73;5.97;;;22.60;23.90;;;;;;5311926;23;20247;-92
2023/05/05 16:42:19;;;;;;;7.90;6.85;;;22.50;24.50;;;;;;5240037;23;20234;-93
2023/05/05 16:44:45;;;;;;;7.22;6.20;;;22.50;24.70;;;;;;5127642;23;20240;-91
2023/05/05 16:47:12;;;;;;;6.50;5.82;;;22.40;25.00;;;;;;5004758;28;20211;-93
2023/05/05 16:49:41;;;;;;;7.85;7.03;;;22.20;25.70;;;;;;4999711;28;20204;-92
2023/05/05 16:52:08;;;;;;;7.20;6.55;;;22.10;25.80;;;;;;4991041;28;20664;-92
2023/05/05 16:54:35;;;;;;;13.05;6.22;;;21.90;26.30;;;;;;4990911;28;20310;-91
2023/05/05 16:57:05;;;;;;;7.10;6.38;;;21.80;26.70;;;;;;5083421;23;20233;-89
2023/05/05 16:59:32;;;;;;;11.20;7.30;;;21.70;26.70;;;;;;4983600;28;20204;-90
2023/05/05 17:01:58;;;;;;;9.52;7.32;;;21.60;27.10;;;;;;5306432;23;20206;-94
2023/05/05 17:19:44;;;;;;;8.15;5.35;;;21.10;28.30;;;;;;5309569;22;20252;-95
2023/05/05 17:22:11;;;;;;;6.22;5.28;;;21.00;29.00;;;;;;5004034;28;20231;-96
2023/05/05 17:24:38;;;;;;;6.13;5.53;;;21.00;29.00;;;;;;4984420;28;20210;-94
2023/05/05 17:27:05;;;;;;;6.55;5.45;;;20.90;29.30;;;;;;5421960;23;20210;-92
2023/05/05 17:29:35;;;;;;;7.73;5.33;;;20.90;29.40;;;;;;5215663;23;1532654;-93
2023/05/05 17:39:50;;;;;;;9.93;4.90;;;20.60;30.20;;;;;;5430024;22;20257;-90
2023/05/05 17:44:52;;;;;;;4.93;4.40;;;20.50;30.10;;;;;;5244048;22;20270;-94
2023/05/05 17:49:56;;;;;;;6.65;4.90;;;20.40;30.80;;;;;;5250176;22;20223;-91
2023/05/05 17:52:26;;;;;;;5.40;4.90;;;20.30;31.40;;;;;;5518247;23;20233;-92
2023/05/05 18:10:27;;;;;;;7.20;4.80;;;20.00;32.10;;;;;;5036474;28;20241;-95
2023/05/05 18:15:33;;;;;;;8.93;4.65;;;19.90;34.10;;;;;;5470815;23;20232;-94
2023/05/05 18:43:57;;;;;;;10.52;6.05;;;19.10;49.60;;;;;;5276160;23;20335;-95
2023/05/05 18:46:24;;;;;;;9.70;5.93;;;19.10;50.20;;;;;;5019569;23;20219;-95
2023/05/05 18:48:51;;;;;;;10.60;5.45;;;19.00;50.40;;;;;;4992913;28;20199;-94
2023/05/05 18:51:19;;;;;;;7.72;5.97;;;19.00;50.80;;;;;;5022280;28;20262;-96
2023/05/05 19:13:12;;;;;;;9.02;3.47;;;14.00;91.20;;;;;;5840425;23;20239;-93
2023/05/05 19:18:15;;;;;;;10.35;2.72;;;12.50;98.40;;;;;;5768740;23;20215;-95
2023/05/05 19:20:54;;;;;;;7.07;2.63;;;12.40;99.90;;;;;;5563942;22;20223;-93
2023/05/05 19:28:34;;;;;;;7.20;2.50;;;11.90;99.90;;;;;;5707488;22;20231;-91
2023/05/05 19:33:36;;;;;;;7.65;2.55;;;11.80;99.90;;;;;;5638949;23;20590;-93
2023/05/05 19:36:03;;;;;;;8.00;2.60;;;11.80;99.90;;;;;;5005084;28;20668;-91
2023/05/05 19:41:12;;;;;;;6.32;2.83;;;12.00;99.90;;;;;;4977199;28;20208;-89
2023/05/05 19:59:14;;;;;;;5.07;2.42;;;12.40;99.90;;;;;;5360446;23;20237;-92
2023/05/05 20:01:41;;;;;;;5.78;2.40;;;12.40;99.90;;;;;;4993601;28;20234;-94
2023/05/05 20:35:21;;;;;;;4.90;2.40;;;12.60;99.90;;;;;;5039929;28;20211;-94
2023/05/05 22:34:26;;;;;;;3.53;2.78;;;13.10;99.90;;;;;;5295555;22;20234;-93
2023/05/05 22:36:53;;;;;;;4.10;2.72;;;13.10;99.90;;;;;;5045701;28;20258;-92
2023/05/05 22:39:20;;;;;;;4.50;2.70;;;13.00;99.90;;;;;;5028926;28;20221;-92
2023/05/05 22:41:47;;;;;;;6.32;2.83;;;13.10;99.90;;;;;;5022719;28;20218;-93
2023/05/05 22:44:16;;;;;;;4.10;2.65;;;13.00;99.90;;;;;;5043325;28;20266;-92
2023/05/05 22:46:43;;;;;;;3.95;2.47;;;13.00;99.90;;;;;;5023754;28;20580;-93
2023/05/05 22:49:10;;;;;;;4.95;2.70;;;12.90;99.90;;;;;;5030767;28;20187;-94
2023/05/05 22:51:39;;;;;;;3.10;2.80;;;12.90;99.90;;;;;;5019678;28;20259;-94
2023/05/05 22:54:06;;;;;;;5.18;2.88;;;12.80;99.90;;;;;;5037025;28;20225;-94
2023/05/05 22:56:33;;;;;;;5.28;2.65;;;12.70;99.90;;;;;;5026066;28;20213;-94
2023/05/05 22:59:00;;;;;;;3.35;2.75;;;12.70;99.90;;;;;;5036932;28;20213;-95
2023/05/05 23:01:27;;;;;;;8.38;3.20;;;12.70;99.90;;;;;;5037533;28;20199;-95
2023/05/05 23:03:54;;;;;;;3.30;2.70;;;12.60;99.90;;;;;;5036927;28;20291;-93
2023/05/05 23:06:21;;;;;;;3.35;2.83;;;12.60;99.90;;;;;;5038022;28;20219;-94
2023/05/05 23:12:03;;;;;;;7.30;2.90;;;12.60;99.90;;;;;;5033531;28;20218;-95
2023/05/05 23:14:30;;;;;;;7.18;3.13;;;12.50;99.90;;;;;;5036402;28;20313;-92
2023/05/05 23:16:59;;;;;;;4.22;2.80;;;12.50;99.90;;;;;;5042508;28;20203;-95
2023/05/05 23:19:47;;;;;;;3.50;2.85;;;12.50;99.90;;;;;;5000087;28;20227;-93
2023/05/05 23:22:15;;;;;;;5.18;3.00;;;12.40;99.90;;;;;;5027559;28;20227;-93
2023/05/05 23:27:24;;;;;;;4.18;2.97;;;12.40;99.90;;;;;;5021069;28;20202;-94
2023/05/05 23:32:32;;;;;;;5.40;3.28;;;12.60;99.90;;;;;;5005063;28;20824;-94
2023/05/05 23:34:58;;;;;;;5.00;3.30;;;12.70;99.90;;;;;;5016973;28;20231;-95
2023/05/05 23:37:25;;;;;;;4.70;3.17;;;12.70;99.90;;;;;;5016483;28;20202;-92
2023/05/05 23:39:54;;;;;;;4.57;3.10;;;12.70;99.90;;;;;;5007561;28;20195;-95
2023/05/05 23:42:22;;;;;;;4.95;3.33;;;12.60;99.90;;;;;;5022510;28;20242;-94